Time;durP1;ratioP1;P1;durP2;ratioP2;P2;SDS_P1;SDS_P2;PMS_P1;PMS_P2;Temp;Humidity;BMP_temperature;BMP_pressure;BME280_temperature;BME280_humidity;BME280_pressure;Samples;Min_cycle;Max_cycle;Signal;HPM_P1;HPM_P2
2023/12/20 00:01:18;;;;;;;8.67;2.13;;;;;;;-145.18;100.00;46701.41;5090576;28;20042;-68
2023/12/20 00:03:43;;;;;;;17.33;2.50;;;;;;;-145.18;100.00;46707.28;5083481;28;20033;-67
2023/12/20 00:06:09;;;;;;;14.67;3.00;;;;;;;-145.18;100.00;46705.31;5087813;28;20357;-68
2023/12/20 00:08:34;;;;;;;14.13;2.73;;;;;;;-145.18;100.00;46695.56;5086990;28;20032;-68
2023/12/20 00:11:00;;;;;;;13.60;2.93;;;;;;;-145.18;100.00;46707.28;5088138;28;20040;-68
2023/12/20 00:13:25;;;;;;;10.47;2.30;;;;;;;-145.18;100.00;46701.41;5087829;28;20107;-68
2023/12/20 00:15:51;;;;;;;14.03;2.20;;;;;;;-145.18;100.00;46701.41;5085898;28;20449;-68
2023/12/20 00:18:16;;;;;;;16.10;2.90;;;;;;;-145.18;100.00;46709.22;5088786;28;20051;-68
2023/12/20 00:20:41;;;;;;;10.67;2.70;;;;;;;-145.18;100.00;46707.28;5090944;28;20056;-74
2023/12/20 00:23:07;;;;;;;12.17;1.80;;;;;;;-145.18;100.00;46705.31;5089066;28;20032;-74
2023/12/20 00:25:34;;;;;;;13.93;2.07;;;;;;;-145.18;100.00;46701.41;5090217;28;20420;-74
2023/12/20 00:28:00;;;;;;;14.07;2.00;;;;;;;-145.18;100.00;46693.59;5087911;28;20086;-74
2023/12/20 00:30:25;;;;;;;16.67;3.90;;;;;;;-145.18;100.00;46711.19;5090885;28;20363;-74
2023/12/20 00:32:50;;;;;;;11.67;2.07;;;;;;;-145.18;100.00;46705.31;5090739;28;20050;-74
2023/12/20 00:35:16;;;;;;;11.60;1.60;;;;;;;-145.18;100.00;46707.28;5089176;28;20031;-73
2023/12/20 00:37:42;;;;;;;7.67;1.70;;;;;;;-145.18;100.00;46709.22;5090814;28;20081;-74
2023/12/20 00:40:08;;;;;;;12.33;2.07;;;;;;;-145.18;100.00;46709.22;5086507;28;20035;-74
2023/12/20 00:42:35;;;;;;;17.40;1.73;;;;;;;-145.18;100.00;46699.47;5087499;28;20264;-75
2023/12/20 00:45:00;;;;;;;10.20;1.70;;;;;;;-145.18;100.00;46703.38;5082452;28;20108;-75
2023/12/20 00:47:26;;;;;;;12.63;2.50;;;;;;;-145.18;100.00;46695.56;5085546;28;20824;-74
2023/12/20 00:49:51;;;;;;;13.10;2.70;;;;;;;-145.18;100.00;46703.38;5092081;28;20035;-74
2023/12/20 00:52:17;;;;;;;8.33;1.43;;;;;;;-145.18;100.00;46707.28;5090633;28;20039;-74
2023/12/20 00:54:43;;;;;;;12.13;1.90;;;;;;;-145.18;100.00;46701.41;5089827;28;20032;-75
2023/12/20 00:57:09;;;;;;;12.93;1.50;;;;;;;-145.18;100.00;46699.47;5080312;28;20032;-74
2023/12/20 00:59:34;;;;;;;9.27;1.53;;;;;;;-145.18;100.00;46703.38;5088641;28;20613;-75
2023/12/20 01:02:00;;;;;;;9.07;1.43;;;;;;;-145.18;100.00;46709.22;5076800;28;20059;-75
2023/12/20 01:04:25;;;;;;;13.17;2.20;;;;;;;-145.18;100.00;46703.38;5077950;28;20037;-75
2023/12/20 01:06:50;;;;;;;8.67;1.40;;;;;;;-145.18;100.00;46701.41;5075300;28;20037;-74
2023/12/20 01:09:16;;;;;;;11.67;2.40;;;;;;;-145.18;100.00;46705.31;5074638;28;20534;-74
2023/12/20 01:11:41;;;;;;;16.50;1.70;;;;;;;-145.18;100.00;46705.31;5075304;28;20450;-74
2023/12/20 01:14:07;;;;;;;13.10;1.83;;;;;;;-145.18;100.00;46695.56;5089314;28;20032;-74
2023/12/20 01:16:32;;;;;;;13.17;1.63;;;;;;;-145.18;100.00;46689.69;5083690;28;20118;-73
2023/12/20 01:18:58;;;;;;;13.47;1.93;;;;;;;-145.18;100.00;46701.41;5080855;28;20480;-74
2023/12/20 01:21:23;;;;;;;10.63;1.70;;;;;;;-145.18;100.00;46699.47;5079235;28;20044;-74
2023/12/20 01:23:49;;;;;;;17.77;2.30;;;;;;;-145.18;100.00;46695.56;5084616;28;20089;-74
2023/12/20 01:26:15;;;;;;;16.90;2.87;;;;;;;-145.18;100.00;46691.66;5076411;28;20031;-73
2023/12/20 01:28:40;;;;;;;18.00;2.47;;;;;;;-145.18;100.00;46693.59;5075201;28;20093;-73
2023/12/20 01:31:06;;;;;;;9.70;2.20;;;;;;;-145.18;100.00;46701.41;5087145;28;20118;-74
2023/12/20 01:33:31;;;;;;;7.70;2.07;;;;;;;-145.18;100.00;46689.69;5096236;28;20399;-74
2023/12/20 01:35:56;;;;;;;14.53;2.37;;;;;;;-145.18;100.00;46697.50;5075096;28;20102;-74
2023/12/20 01:38:22;;;;;;;13.83;2.77;;;;;;;-145.18;100.00;46707.28;5075210;28;20485;-74
2023/12/20 01:40:47;;;;;;;11.50;1.77;;;;;;;-145.18;100.00;46699.47;5089168;28;20028;-74
2023/12/20 01:43:13;;;;;;;26.70;2.87;;;;;;;-145.18;100.00;46699.47;5092990;28;20043;-74
2023/12/20 01:45:38;;;;;;;11.33;1.87;;;;;;;-145.18;100.00;46685.78;5083971;28;20043;-74
2023/12/20 01:48:05;;;;;;;12.43;2.30;;;;;;;-145.18;100.00;46685.78;5092770;28;20071;-74
2023/12/20 01:50:31;;;;;;;9.97;2.20;;;;;;;-145.18;100.00;46697.50;5089411;28;20044;-74
2023/12/20 01:53:00;;;;;;;12.90;2.20;;;;;;;-145.18;100.00;46693.59;5095028;28;20269;-74
2023/12/20 01:55:27;;;;;;;16.07;2.63;;;;;;;-145.18;100.00;46695.56;5087141;28;20257;-74
2023/12/20 01:57:53;;;;;;;16.97;2.30;;;;;;;-145.18;100.00;46697.50;5076132;28;20292;-74
2023/12/20 02:00:23;;;;;;;16.77;2.63;;;;;;;-145.18;100.00;46709.22;5094708;28;20763;-74
2023/12/20 02:02:50;;;;;;;19.73;2.50;;;;;;;-145.18;100.00;46693.59;5079300;22;20053;-85
2023/12/20 02:05:16;;;;;;;15.63;2.30;;;;;;;-145.18;100.00;46699.47;5051102;28;20316;-85
2023/12/20 02:07:42;;;;;;;12.93;2.20;;;;;;;-145.18;100.00;46701.41;5050041;28;20254;-86
2023/12/20 02:10:08;;;;;;;16.23;3.00;;;;;;;-145.18;100.00;46705.31;5053146;28;20273;-87
2023/12/20 02:12:33;;;;;;;15.30;2.20;;;;;;;-145.18;100.00;46697.50;5043369;28;20040;-86
2023/12/20 02:14:59;;;;;;;16.63;3.83;;;;;;;-145.18;100.00;46693.59;5055591;28;20115;-85
2023/12/20 02:17:27;;;;;;;19.97;2.90;;;;;;;-145.18;100.00;46707.28;5053536;28;20667;-88
2023/12/20 02:19:53;;;;;;;16.10;2.63;;;;;;;-145.18;100.00;46689.69;5048343;28;20049;-87
2023/12/20 02:22:18;;;;;;;14.60;3.80;;;;;;;-145.18;100.00;46693.59;5037957;28;20812;-85
2023/12/20 02:24:44;;;;;;;20.33;3.20;;;;;;;-145.18;100.00;46695.56;5054770;28;20027;-86
2023/12/20 02:27:12;;;;;;;16.50;3.20;;;;;;;-145.18;100.00;46699.47;5055173;28;20033;-85
2023/12/20 02:29:37;;;;;;;21.37;3.07;;;;;;;-145.18;100.00;46687.75;5050222;28;20706;-87
2023/12/20 02:32:03;;;;;;;15.47;2.53;;;;;;;-145.18;100.00;46705.31;5048822;28;20332;-87
2023/12/20 02:34:29;;;;;;;17.90;2.30;;;;;;;-145.18;100.00;46697.50;5041145;28;20041;-87
2023/12/20 02:36:54;;;;;;;16.00;2.67;;;;;;;-145.18;100.00;46691.66;5046963;28;20032;-87
2023/12/20 02:39:20;;;;;;;14.97;2.30;;;;;;;-145.18;100.00;46707.28;5049587;28;20044;-88
2023/12/20 02:41:46;;;;;;;7.30;1.83;;;;;;;-145.18;100.00;46703.38;5049751;28;20030;-86
2023/12/20 02:44:12;;;;;;;12.40;2.37;;;;;;;-145.18;100.00;46707.28;5054774;28;20635;-87
2023/12/20 02:46:37;;;;;;;14.60;2.40;;;;;;;-145.18;100.00;46711.19;5040106;28;20037;-86
2023/12/20 02:49:02;;;;;;;12.77;1.93;;;;;;;-145.18;100.00;46705.31;5037803;28;20030;-87
2023/12/20 02:51:28;;;;;;;15.43;3.60;;;;;;;-145.18;100.00;46713.13;5048056;28;20033;-86
2023/12/20 02:53:53;;;;;;;23.63;3.63;;;;;;;-145.18;100.00;46709.22;5054613;28;20029;-84
2023/12/20 02:56:19;;;;;;;14.17;2.30;;;;;;;-145.18;100.00;46713.13;5052831;28;20550;-87
2023/12/20 02:58:44;;;;;;;18.37;2.27;;;;;;;-145.18;100.00;46715.09;5046562;28;20030;-88
2023/12/20 03:01:10;;;;;;;17.40;2.77;;;;;;;-145.18;100.00;46707.28;5046355;28;20065;-86
2023/12/20 03:03:35;;;;;;;25.13;2.93;;;;;;;-145.18;100.00;46713.13;5062467;28;20465;-86
2023/12/20 03:06:00;;;;;;;15.63;2.57;;;;;;;-145.18;100.00;46711.19;5053277;28;20025;-87
2023/12/20 03:08:26;;;;;;;15.60;2.60;;;;;;;-145.18;100.00;46713.13;5049692;28;20384;-87
2023/12/20 03:10:51;;;;;;;15.87;2.00;;;;;;;-145.18;100.00;46713.13;5053075;28;20469;-87
2023/12/20 03:13:17;;;;;;;14.70;2.00;;;;;;;-145.18;100.00;46707.28;5037654;28;20120;-87
2023/12/20 03:15:42;;;;;;;23.33;3.00;;;;;;;-145.18;100.00;46711.19;5052706;28;20033;-87
2023/12/20 03:18:07;;;;;;;14.30;2.10;;;;;;;-145.18;100.00;46709.22;5051644;28;20025;-86
2023/12/20 03:20:34;;;;;;;10.33;2.40;;;;;;;-145.18;100.00;46719.00;5039643;28;20128;-86
2023/12/20 03:23:00;;;;;;;19.03;2.63;;;;;;;-145.18;100.00;46715.09;5043569;28;20021;-87
2023/12/20 03:25:26;;;;;;;6.97;1.77;;;;;;;-145.18;100.00;46719.00;5053721;28;20316;-86
2023/12/20 03:27:52;;;;;;;16.17;2.23;;;;;;;-145.18;100.00;46715.09;5053340;28;20266;-86
2023/12/20 03:30:17;;;;;;;12.27;1.87;;;;;;;-145.18;100.00;46719.00;5038064;28;20037;-86
2023/12/20 03:32:44;;;;;;;20.77;2.23;;;;;;;-145.18;100.00;46715.09;5050292;28;20317;-87
2023/12/20 03:35:09;;;;;;;15.57;2.07;;;;;;;-145.18;100.00;46715.09;5046778;28;20033;-86
2023/12/20 03:37:35;;;;;;;19.47;2.27;;;;;;;-145.18;100.00;46717.03;5053556;28;20258;-86
2023/12/20 03:40:01;;;;;;;15.33;2.40;;;;;;;-145.18;100.00;46707.28;5050088;28;20490;-86
2023/12/20 03:42:26;;;;;;;15.37;2.63;;;;;;;-145.18;100.00;46719.00;5052117;28;20120;-87
2023/12/20 03:44:52;;;;;;;19.17;2.97;;;;;;;-145.18;100.00;46713.13;5040790;28;20293;-86
2023/12/20 03:47:17;;;;;;;11.73;2.10;;;;;;;-145.18;100.00;46711.19;5033488;28;20112;-87
2023/12/20 03:49:42;;;;;;;16.27;2.43;;;;;;;-145.18;100.00;46713.13;5032908;28;20021;-86
2023/12/20 03:52:08;;;;;;;16.13;2.33;;;;;;;-145.18;100.00;46715.09;5046264;28;20108;-86
2023/12/20 03:54:35;;;;;;;11.30;2.30;;;;;;;-145.18;100.00;46711.19;5049008;28;20464;-86
2023/12/20 03:57:01;;;;;;;17.33;2.97;;;;;;;-145.18;100.00;46713.13;5042861;28;20492;-86
2023/12/20 03:59:26;;;;;;;19.27;2.40;;;;;;;-145.18;100.00;46715.09;5052040;28;20333;-87
2023/12/20 04:01:52;;;;;;;12.30;2.07;;;;;;;-145.18;100.00;46715.09;5061739;28;20037;-87
2023/12/20 04:04:17;;;;;;;14.63;2.27;;;;;;;-145.18;100.00;46719.00;5048169;28;20116;-87
2023/12/20 04:06:43;;;;;;;11.30;2.13;;;;;;;-145.18;100.00;46715.09;5047247;28;20458;-86
2023/12/20 04:09:12;;;;;;;17.17;2.70;;;;;;;-145.18;100.00;46715.09;5048178;28;20019;-86
2023/12/20 04:11:37;;;;;;;6.00;1.30;;;;;;;-145.18;100.00;46719.00;5050439;28;20112;-86
2023/12/20 04:14:04;;;;;;;11.17;1.90;;;;;;;-145.18;100.00;46709.22;5051290;28;20764;-87
2023/12/20 04:16:30;;;;;;;17.90;2.93;;;;;;;-145.18;100.00;46719.00;5051272;28;20065;-86
2023/12/20 04:18:55;;;;;;;17.73;2.27;;;;;;;-145.18;100.00;46715.09;5052350;28;20294;-87
2023/12/20 04:21:21;;;;;;;16.43;3.13;;;;;;;-145.18;100.00;46720.94;5054960;28;20069;-86
2023/12/20 04:23:46;;;;;;;20.87;2.63;;;;;;;-145.18;100.00;46719.00;5033327;28;20032;-86
2023/12/20 04:26:12;;;;;;;14.67;2.83;;;;;;;-145.18;100.00;46720.94;5051631;28;20078;-86
2023/12/20 04:28:37;;;;;;;17.57;3.60;;;;;;;-145.18;100.00;46719.00;5051232;28;20029;-86
2023/12/20 04:31:03;;;;;;;24.00;2.70;;;;;;;-145.18;100.00;46722.91;5050968;28;20165;-86
2023/12/20 04:33:28;;;;;;;11.73;2.60;;;;;;;-145.18;100.00;46717.03;5042180;28;20155;-87
2023/12/20 04:35:53;;;;;;;12.60;2.20;;;;;;;-145.18;100.00;46715.09;5043180;28;20037;-87
2023/12/20 04:38:19;;;;;;;17.67;2.17;;;;;;;-145.18;100.00;46717.03;5047194;28;20021;-86
2023/12/20 04:40:48;;;;;;;18.40;3.40;;;;;;;-145.18;100.00;46720.94;5046279;28;20036;-87
2023/12/20 04:43:13;;;;;;;11.77;2.47;;;;;;;-145.18;100.00;46711.19;5034509;28;20520;-87
2023/12/20 04:45:39;;;;;;;17.07;2.20;;;;;;;-145.18;100.00;46715.09;5036805;28;20270;-87
2023/12/20 04:48:04;;;;;;;20.60;3.67;;;;;;;-145.18;100.00;46715.09;5062678;28;20354;-87
2023/12/20 04:50:33;;;;;;;19.20;2.83;;;;;;;-145.18;100.00;46715.09;5052487;28;20056;-87
2023/12/20 04:52:58;;;;;;;22.67;2.87;;;;;;;-145.18;100.00;46719.00;5042022;28;20543;-88
2023/12/20 04:55:24;;;;;;;14.37;2.43;;;;;;;-145.18;100.00;46717.03;5040565;28;20302;-87
2023/12/20 04:57:49;;;;;;;18.40;2.53;;;;;;;-145.18;100.00;46713.13;5052052;28;20111;-87
2023/12/20 05:00:15;;;;;;;21.17;2.90;;;;;;;-145.18;100.00;46719.00;5050468;28;20124;-86
2023/12/20 05:02:41;;;;;;;20.47;2.53;;;;;;;-145.18;100.00;46719.00;5045539;28;20088;-87
2023/12/20 05:05:07;;;;;;;20.63;2.70;;;;;;;-145.18;100.00;46719.00;5033061;28;20036;-87
2023/12/20 05:07:32;;;;;;;18.93;2.30;;;;;;;-145.18;100.00;46715.09;5042833;28;20028;-87
2023/12/20 05:09:58;;;;;;;22.20;2.73;;;;;;;-145.18;100.00;46719.00;5042244;28;20773;-87
2023/12/20 05:12:24;;;;;;;16.77;2.20;;;;;;;-145.18;100.00;46713.13;5048714;28;20020;-86
2023/12/20 05:14:51;;;;;;;16.27;3.10;;;;;;;-145.18;100.00;46713.13;5049540;28;20277;-87
2023/12/20 05:17:16;;;;;;;11.30;2.23;;;;;;;-145.18;100.00;46713.13;5049197;28;20025;-86
2023/12/20 05:19:41;;;;;;;14.93;3.57;;;;;;;-145.18;100.00;46715.09;5050907;28;20276;-87
2023/12/20 05:22:07;;;;;;;22.17;3.00;;;;;;;-145.18;100.00;46715.09;5033642;28;20037;-87
2023/12/20 05:24:32;;;;;;;11.90;1.90;;;;;;;-145.18;100.00;46711.19;5038207;28;20742;-87
2023/12/20 05:26:58;;;;;;;23.93;2.47;;;;;;;-145.18;100.00;46709.22;5065630;28;20071;-86
2023/12/20 05:29:23;;;;;;;13.23;2.47;;;;;;;-145.18;100.00;46717.03;5044016;28;20025;-87
2023/12/20 05:31:48;;;;;;;15.27;3.13;;;;;;;-145.18;100.00;46709.22;5048391;28;20497;-87
2023/12/20 05:34:14;;;;;;;21.63;3.60;;;;;;;-145.18;100.00;46701.41;5049001;28;20029;-87
2023/12/20 05:36:39;;;;;;;10.67;2.60;;;;;;;-145.18;100.00;46711.19;5050659;28;20124;-87
2023/12/20 05:39:04;;;;;;;16.37;2.47;;;;;;;-145.18;100.00;46713.13;5051367;28;20108;-86
2023/12/20 05:41:31;;;;;;;24.97;2.23;;;;;;;-145.18;100.00;46713.13;5051877;28;20368;-88
2023/12/20 05:43:57;;;;;;;16.57;2.00;;;;;;;-145.18;100.00;46705.31;5050698;28;20021;-88
2023/12/20 05:46:24;;;;;;;18.73;2.37;;;;;;;-145.18;100.00;46709.22;5052705;28;20266;-87
2023/12/20 05:48:51;;;;;;;17.00;1.80;;;;;;;-145.18;100.00;46709.22;5051177;28;20357;-87
2023/12/20 05:51:18;;;;;;;20.53;2.10;;;;;;;-145.18;100.00;46711.19;5051277;28;20281;-87
2023/12/20 05:53:44;;;;;;;21.33;2.93;;;;;;;-145.18;100.00;46713.13;5051685;28;20754;-86
2023/12/20 05:56:10;;;;;;;12.67;2.20;;;;;;;-145.18;100.00;46709.22;5033925;28;20261;-87
2023/12/20 05:58:36;;;;;;;13.83;2.13;;;;;;;-145.18;100.00;46713.13;5049432;28;20790;-87
2023/12/20 06:01:04;;;;;;;17.10;2.50;;;;;;;-145.18;100.00;46711.19;5052587;28;20294;-87
2023/12/20 06:03:29;;;;;;;17.70;2.37;;;;;;;-145.18;100.00;46715.09;5048924;28;20477;-87
2023/12/20 06:05:55;;;;;;;23.40;2.90;;;;;;;-145.18;100.00;46713.13;5051280;28;20316;-88
2023/12/20 06:08:20;;;;;;;20.50;3.30;;;;;;;-145.18;100.00;46709.22;5046499;28;20048;-87
2023/12/20 06:10:46;;;;;;;18.47;2.50;;;;;;;-145.18;100.00;46711.19;5044783;28;20044;-88
2023/12/20 06:13:13;;;;;;;19.67;3.67;;;;;;;-145.18;100.00;46713.13;5045031;28;20485;-88
2023/12/20 06:15:39;;;;;;;19.07;2.67;;;;;;;-145.18;100.00;46715.09;5055739;28;20025;-88
2023/12/20 06:18:05;;;;;;;16.17;4.07;;;;;;;-145.18;100.00;46707.28;5050462;28;20288;-86
2023/12/20 06:20:34;;;;;;;25.00;2.80;;;;;;;-145.18;100.00;46713.13;5040260;28;20817;-86
2023/12/20 06:23:00;;;;;;;21.17;2.50;;;;;;;-145.18;100.00;46711.19;5029158;28;20044;-86
2023/12/20 06:25:27;;;;;;;29.67;3.27;;;;;;;-145.18;100.00;46711.19;5050551;28;20285;-87
2023/12/20 06:27:53;;;;;;;24.80;3.63;;;;;;;-145.18;100.00;46709.22;5054883;28;20051;-86
2023/12/20 06:30:18;;;;;;;15.87;3.20;;;;;;;-145.18;100.00;46709.22;5056752;28;20278;-88
2023/12/20 06:32:43;;;;;;;22.33;2.97;;;;;;;-145.18;100.00;46713.13;5054284;28;20032;-87
2023/12/20 06:35:09;;;;;;;15.97;2.57;;;;;;;-145.18;100.00;46715.09;5054345;28;20846;-86
2023/12/20 06:37:35;;;;;;;21.83;2.90;;;;;;;-145.18;100.00;46711.19;5051508;28;20029;-87
2023/12/20 06:40:00;;;;;;;21.67;2.97;;;;;;;-145.18;100.00;46713.13;5055985;28;20108;-87
2023/12/20 06:42:26;;;;;;;23.80;3.03;;;;;;;-145.18;100.00;46709.22;5047103;28;20478;-86
2023/12/20 06:44:52;;;;;;;16.50;3.20;;;;;;;-145.18;100.00;46711.19;5053262;28;20033;-83
2023/12/20 06:47:17;;;;;;;25.33;3.27;;;;;;;-145.18;100.00;46699.47;5053154;28;20037;-86
2023/12/20 06:49:43;;;;;;;22.40;3.50;;;;;;;-145.18;100.00;46715.09;5054318;28;20072;-84
2023/12/20 06:52:08;;;;;;;16.50;3.10;;;;;;;-145.18;100.00;46711.19;5042709;28;20363;-85
2023/12/20 06:54:34;;;;;;;21.13;4.87;;;;;;;-145.18;100.00;46713.13;5037225;28;20501;-87
2023/12/20 06:57:00;;;;;;;19.57;2.63;;;;;;;-145.18;100.00;46713.13;5052184;28;20028;-85
2023/12/20 06:59:25;;;;;;;14.40;3.07;;;;;;;-145.18;100.00;46701.41;5047311;28;20267;-85
2023/12/20 07:01:51;;;;;;;16.33;2.30;;;;;;;-145.18;100.00;46715.09;5038509;28;20128;-86
2023/12/20 07:04:21;;;;;;;20.47;2.27;;;;;;;-145.18;100.00;46713.13;5053954;28;20166;-85
2023/12/20 07:06:47;;;;;;;17.23;3.53;;;;;;;-145.18;100.00;46713.13;5053956;28;20048;-85
2023/12/20 07:09:13;;;;;;;18.07;3.00;;;;;;;-145.18;100.00;46711.19;5051502;28;20262;-84
2023/12/20 07:11:39;;;;;;;30.67;3.50;;;;;;;-145.18;100.00;46713.13;5042989;28;20834;-86
2023/12/20 07:14:04;;;;;;;22.73;2.67;;;;;;;-145.18;100.00;46709.22;5038455;28;20029;-89
2023/12/20 07:16:29;;;;;;;18.83;2.43;;;;;;;-145.18;100.00;46713.13;5051068;28;20033;-86
2023/12/20 07:18:56;;;;;;;18.17;2.80;;;;;;;-145.18;100.00;46713.13;5056782;28;20036;-92
2023/12/20 07:21:21;;;;;;;15.70;2.03;;;;;;;-145.18;100.00;46713.13;5043837;28;20101;-87
2023/12/20 07:23:47;;;;;;;23.20;3.60;;;;;;;-145.18;100.00;46703.38;5053501;28;20825;-86
2023/12/20 07:26:12;;;;;;;25.17;3.03;;;;;;;-145.18;100.00;46711.19;5045380;28;20020;-87
2023/12/20 07:28:38;;;;;;;20.80;2.50;;;;;;;-145.18;100.00;46711.19;5040509;28;20471;-85
2023/12/20 07:31:03;;;;;;;18.00;3.87;;;;;;;-145.18;100.00;46709.22;5053756;28;20025;-84
2023/12/20 07:33:28;;;;;;;18.33;2.67;;;;;;;-145.18;100.00;46711.19;5052087;28;20028;-83
2023/12/20 07:35:54;;;;;;;21.17;2.87;;;;;;;-145.18;100.00;46713.13;5049904;28;20037;-84
2023/12/20 07:38:19;;;;;;;11.93;2.47;;;;;;;-145.18;100.00;46717.03;5053286;28;20470;-83
2023/12/20 07:40:44;;;;;;;21.77;3.40;;;;;;;-145.18;100.00;46711.19;5049789;28;20106;-85
2023/12/20 07:43:10;;;;;;;18.40;2.63;;;;;;;-145.18;100.00;46711.19;5048396;28;20022;-85
2023/12/20 07:45:35;;;;;;;22.57;3.73;;;;;;;-145.18;100.00;46713.13;5040751;28;20482;-82
2023/12/20 07:48:00;;;;;;;19.53;2.87;;;;;;;-145.18;100.00;46709.22;5049917;28;20040;-86
2023/12/20 07:50:27;;;;;;;27.07;2.77;;;;;;;-145.18;100.00;46715.09;5046195;28;20045;-85
2023/12/20 07:52:53;;;;;;;22.37;3.67;;;;;;;-145.18;100.00;46719.00;5050316;28;20033;-83
2023/12/20 07:55:18;;;;;;;22.83;3.13;;;;;;;-145.18;100.00;46711.19;5047343;28;21021;-83
2023/12/20 07:57:44;;;;;;;17.47;2.40;;;;;;;-145.18;100.00;46715.09;5042797;28;20037;-83
2023/12/20 08:00:10;;;;;;;13.43;2.60;;;;;;;-145.18;100.00;46709.22;5049425;28;20056;-82
2023/12/20 08:02:35;;;;;;;22.80;3.00;;;;;;;-145.18;100.00;46707.28;5039825;28;20397;-82
2023/12/20 08:05:00;;;;;;;15.20;2.77;;;;;;;-145.18;100.00;46713.13;5049484;28;20285;-83
2023/12/20 08:07:26;;;;;;;28.07;3.57;;;;;;;-145.18;100.00;46707.28;5031392;28;20436;-79
2023/12/20 08:09:52;;;;;;;20.77;3.10;;;;;;;-145.18;100.00;46713.13;5062889;28;20029;-78
2023/12/20 08:12:17;;;;;;;17.60;2.97;;;;;;;-145.18;100.00;46709.22;5045747;28;20029;-79
2023/12/20 08:14:42;;;;;;;14.57;2.23;;;;;;;-145.18;100.00;46711.19;5049544;28;20035;-77
2023/12/20 08:17:08;;;;;;;15.50;2.33;;;;;;;-145.18;100.00;46709.22;5035864;28;20033;-76
2023/12/20 08:19:33;;;;;;;20.10;2.37;;;;;;;-145.18;100.00;46715.09;5037535;28;20466;-77
2023/12/20 08:21:58;;;;;;;30.77;3.47;;;;;;;-145.18;100.00;46709.22;5035099;28;20061;-77
2023/12/20 08:24:24;;;;;;;21.10;2.73;;;;;;;-145.18;100.00;46711.19;5047645;28;20060;-78
2023/12/20 08:26:49;;;;;;;20.27;2.20;;;;;;;-145.18;100.00;46711.19;5036254;28;20457;-77
2023/12/20 08:29:15;;;;;;;23.03;3.80;;;;;;;-145.18;100.00;46713.13;5037253;28;20041;-77
2023/12/20 08:31:40;;;;;;;17.43;3.47;;;;;;;-145.18;100.00;46711.19;5045796;28;20026;-77
2023/12/20 08:34:05;;;;;;;20.77;3.10;;;;;;;-145.18;100.00;46707.28;5046736;28;20128;-77
2023/12/20 08:36:31;;;;;;;21.30;3.23;;;;;;;-145.18;100.00;46695.56;5052118;28;20040;-77
2023/12/20 08:38:56;;;;;;;19.50;2.57;;;;;;;-145.18;100.00;46709.22;5038906;28;20026;-77
2023/12/20 08:41:21;;;;;;;18.40;3.10;;;;;;;-145.18;100.00;46707.28;5052752;28;20440;-78
2023/12/20 08:43:47;;;;;;;21.50;3.07;;;;;;;-145.18;100.00;46709.22;5051223;28;20033;-77
2023/12/20 08:46:14;;;;;;;16.73;2.73;;;;;;;-145.18;100.00;46713.13;5040145;28;20434;-77
2023/12/20 08:48:39;;;;;;;12.30;1.93;;;;;;;-145.18;100.00;46709.22;5050248;28;20033;-77
2023/12/20 08:51:08;;;;;;;16.13;2.20;;;;;;;-145.18;100.00;46707.28;5050828;28;20789;-76
2023/12/20 08:53:33;;;;;;;19.80;2.87;;;;;;;-145.18;100.00;46709.22;5051274;28;20117;-77
2023/12/20 08:56:01;;;;;;;21.73;3.53;;;;;;;-145.18;100.00;46709.22;5051066;28;20361;-76
2023/12/20 08:58:26;;;;;;;18.37;2.10;;;;;;;-145.18;100.00;46707.28;5051219;28;20495;-76
2023/12/20 09:00:52;;;;;;;17.40;2.67;;;;;;;-145.18;100.00;46705.31;5052573;28;20246;-77
2023/12/20 09:03:17;;;;;;;18.83;2.00;;;;;;;-145.18;100.00;46709.22;5049206;28;20056;-77
2023/12/20 09:05:42;;;;;;;19.33;3.17;;;;;;;-145.18;100.00;46715.09;5051659;28;20068;-77
2023/12/20 09:08:09;;;;;;;16.00;2.73;;;;;;;-145.18;100.00;46715.09;5038223;28;20069;-77
2023/12/20 09:10:35;;;;;;;18.03;2.43;;;;;;;-145.18;100.00;46711.19;5032654;28;20072;-78
2023/12/20 09:13:00;;;;;;;17.97;3.10;;;;;;;-145.18;100.00;46711.19;5036257;28;20352;-78
2023/12/20 09:15:26;;;;;;;14.60;2.30;;;;;;;-145.18;100.00;46709.22;5051524;28;20044;-81
2023/12/20 09:17:53;;;;;;;18.60;2.80;;;;;;;-145.18;100.00;46707.28;5040197;28;20040;-77
2023/12/20 09:20:18;;;;;;;17.17;3.10;;;;;;;-145.18;100.00;46715.09;5045719;28;20269;-78
2023/12/20 09:22:43;;;;;;;16.60;2.20;;;;;;;-145.18;100.00;46711.19;5046812;28;20254;-77
2023/12/20 09:25:10;;;;;;;26.13;2.20;;;;;;;-145.18;100.00;46711.19;5034609;28;20025;-89
2023/12/20 09:27:36;;;;;;;19.17;2.83;;;;;;;-145.18;100.00;46713.13;5035632;28;20469;-79
2023/12/20 09:30:02;;;;;;;24.57;2.60;;;;;;;-145.18;100.00;46711.19;5033948;28;20275;-80
2023/12/20 09:32:27;;;;;;;24.60;3.00;;;;;;;-145.18;100.00;46713.13;5047768;28;20033;-80
2023/12/20 09:34:52;;;;;;;20.07;3.30;;;;;;;-145.18;100.00;46711.19;5056177;28;20037;-81
2023/12/20 09:37:18;;;;;;;23.40;2.50;;;;;;;-145.18;100.00;46711.19;5046090;28;20090;-80
2023/12/20 09:39:43;;;;;;;19.20;3.43;;;;;;;-145.18;100.00;46709.22;5051144;28;20034;-80
2023/12/20 09:42:11;;;;;;;35.53;4.97;;;;;;;-145.18;100.00;46709.22;5039474;28;20049;-80
2023/12/20 09:44:37;;;;;;;21.10;2.63;;;;;;;-145.18;100.00;46707.28;5048887;28;20049;-79
2023/12/20 09:47:03;;;;;;;23.80;3.30;;;;;;;-145.18;100.00;46705.31;5039610;28;20258;-80
2023/12/20 09:49:30;;;;;;;16.97;3.10;;;;;;;-145.18;100.00;46705.31;5039331;28;20041;-80
2023/12/20 09:51:56;;;;;;;21.17;2.70;;;;;;;-145.18;100.00;46707.28;5050694;28;20641;-80
2023/12/20 09:54:23;;;;;;;25.53;4.17;;;;;;;-145.18;100.00;46709.22;5049169;28;20677;-79
2023/12/20 09:56:48;;;;;;;18.10;2.33;;;;;;;-145.18;100.00;46707.28;5051014;28;20269;-79
2023/12/20 09:59:14;;;;;;;21.70;3.10;;;;;;;-145.18;100.00;46707.28;5038643;28;20715;-79
2023/12/20 10:01:41;;;;;;;15.60;2.07;;;;;;;-145.18;100.00;46707.28;5050946;28;20428;-80
2023/12/20 10:04:08;;;;;;;21.33;2.03;;;;;;;-145.18;100.00;46711.19;5044202;28;20120;-80
2023/12/20 10:06:40;;;;;;;18.37;3.70;;;;;;;-145.18;100.00;46701.41;5054940;28;20568;-80
2023/12/20 10:09:06;;;;;;;15.57;3.10;;;;;;;-145.18;100.00;46709.22;5045451;28;20357;-79
2023/12/20 10:11:32;;;;;;;10.80;2.50;;;;;;;-145.18;100.00;46703.38;5044795;28;20350;-81
2023/12/20 10:14:01;;;;;;;27.20;3.03;;;;;;;-145.18;100.00;46711.19;5054691;28;20041;-80
2023/12/20 10:16:27;;;;;;;11.07;2.03;;;;;;;-145.18;100.00;46711.19;5042200;28;20047;-79
2023/12/20 10:18:56;;;;;;;19.93;2.63;;;;;;;-145.18;100.00;46707.28;5044417;28;20654;-80
2023/12/20 10:21:26;;;;;;;21.87;3.23;;;;;;;-145.18;100.00;46709.22;5043804;28;20250;-80
2023/12/20 10:23:52;;;;;;;19.53;3.03;;;;;;;-145.18;100.00;46707.28;5045975;28;20686;-80
2023/12/20 10:26:26;;;;;;;11.60;1.90;;;;;;;-145.18;100.00;46709.22;5039398;28;20316;-77
2023/12/20 10:29:00;;;;;;;10.10;2.63;;;;;;;-145.18;100.00;46707.28;5037173;28;20057;-80
2023/12/20 10:31:33;;;;;;;16.83;2.03;;;;;;;-145.18;100.00;46703.38;5038636;28;20727;-80
2023/12/20 10:34:00;;;;;;;13.10;1.70;;;;;;;-145.18;100.00;46709.22;5037451;28;20270;-80
2023/12/20 10:36:27;;;;;;;13.93;2.40;;;;;;;-145.18;100.00;46707.28;5054673;28;20258;-80
2023/12/20 10:38:54;;;;;;;23.67;3.67;;;;;;;-145.18;100.00;46711.19;5042383;28;20255;-79
2023/12/20 10:41:28;;;;;;;16.27;2.80;;;;;;;-145.18;100.00;46705.31;5035645;28;20259;-81
2023/12/20 10:44:06;;;;;;;14.23;2.20;;;;;;;-145.18;100.00;46707.28;5048912;28;20321;-80
2023/12/20 10:46:33;;;;;;;20.97;2.50;;;;;;;-145.18;100.00;46703.38;5054880;28;20258;-83
2023/12/20 10:49:01;;;;;;;18.43;2.30;;;;;;;-145.18;100.00;46707.28;5041597;28;20745;-84
2023/12/20 10:51:29;;;;;;;16.93;2.20;;;;;;;-145.18;100.00;46707.28;5054490;28;20246;-83
2023/12/20 10:53:55;;;;;;;21.67;2.47;;;;;;;-145.18;100.00;46709.22;5049508;28;20735;-84
2023/12/20 10:56:21;;;;;;;21.77;2.90;;;;;;;-145.18;100.00;46707.28;5044356;28;20255;-84